sensor_id;sensor_type;location;lat;lon;timestamp;pressure;altitude;pressure_sealevel;temperature;humidity
44988;BME280;35735;52.226;21.254;2023-05-20T00:04:29;101423.50;;;14.45;100.00
44988;BME280;35735;52.226;21.254;2023-05-20T00:09:30;101423.50;;;14.42;100.00
44988;BME280;35735;52.226;21.254;2023-05-20T00:14:30;101418.97;;;14.30;100.00
44988;BME280;35735;52.226;21.254;2023-05-20T00:19:31;101414.41;;;14.24;100.00
44988;BME280;35735;52.226;21.254;2023-05-20T00:24:31;101418.03;;;14.30;100.00
44988;BME280;35735;52.226;21.254;2023-05-20T00:29:32;101400.84;;;14.29;100.00
44988;BME280;35735;52.226;21.254;2023-05-20T00:34:33;101403.56;;;14.24;100.00
44988;BME280;35735;52.226;21.254;2023-05-20T00:39:33;101400.84;;;14.15;100.00
44988;BME280;35735;52.226;21.254;2023-05-20T00:44:34;101402.66;;;14.07;100.00
44988;BME280;35735;52.226;21.254;2023-05-20T00:49:34;101399.94;;;14.04;100.00
44988;BME280;35735;52.226;21.254;2023-05-20T00:54:35;101398.09;;;14.03;100.00
44988;BME280;35735;52.226;21.254;2023-05-20T00:59:36;101396.31;;;13.96;100.00
44988;BME280;35735;52.226;21.254;2023-05-20T01:04:37;101390.84;;;13.86;100.00
44988;BME280;35735;52.226;21.254;2023-05-20T01:09:38;101397.19;;;13.85;100.00
44988;BME280;35735;52.226;21.254;2023-05-20T01:14:49;101402.59;;;13.81;100.00
44988;BME280;35735;52.226;21.254;2023-05-20T01:19:53;101405.28;;;13.76;100.00
44988;BME280;35735;52.226;21.254;2023-05-20T01:24:54;101399.87;;;13.76;100.00
44988;BME280;35735;52.226;21.254;2023-05-20T01:29:55;101404.41;;;13.80;100.00
44988;BME280;35735;52.226;21.254;2023-05-20T01:34:56;101402.59;;;13.76;100.00
44988;BME280;35735;52.226;21.254;2023-05-20T01:39:58;101398.06;;;13.74;100.00
44988;BME280;35735;52.226;21.254;2023-05-20T01:44:59;101399.84;;;13.73;100.00
44988;BME280;35735;52.226;21.254;2023-05-20T01:49:59;101406.22;;;13.72;100.00
44988;BME280;35735;52.226;21.254;2023-05-20T01:55:00;101402.56;;;13.67;100.00
44988;BME280;35735;52.226;21.254;2023-05-20T02:00:01;101392.63;;;13.66;100.00
44988;BME280;35735;52.226;21.254;2023-05-20T02:05:02;101388.09;;;13.65;100.00
44988;BME280;35735;52.226;21.254;2023-05-20T02:10:02;101387.16;;;13.53;100.00
44988;BME280;35735;52.226;21.254;2023-05-20T02:15:04;101379.91;;;13.52;100.00
44988;BME280;35735;52.226;21.254;2023-05-20T02:20:06;101389.87;;;13.55;100.00
44988;BME280;35735;52.226;21.254;2023-05-20T02:25:07;101386.25;;;13.51;100.00
44988;BME280;35735;52.226;21.254;2023-05-20T02:30:08;101389.87;;;13.55;100.00
44988;BME280;35735;52.226;21.254;2023-05-20T02:35:08;101388.97;;;13.56;100.00
44988;BME280;35735;52.226;21.254;2023-05-20T02:40:09;101398.00;;;13.52;100.00
44988;BME280;35735;52.226;21.254;2023-05-20T02:45:10;101395.31;;;13.57;100.00
44988;BME280;35735;52.226;21.254;2023-05-20T02:50:10;101403.47;;;13.58;100.00
44988;BME280;35735;52.226;21.254;2023-05-20T02:55:11;101401.66;;;13.63;100.00
44988;BME280;35735;52.226;21.254;2023-05-20T03:00:12;101395.34;;;13.67;100.00
44988;BME280;35735;52.226;21.254;2023-05-20T03:05:12;101398.06;;;13.72;100.00
44988;BME280;35735;52.226;21.254;2023-05-20T03:10:13;101402.56;;;13.75;100.00
44988;BME280;35735;52.226;21.254;2023-05-20T03:15:14;101401.69;;;13.76;100.00
44988;BME280;35735;52.226;21.254;2023-05-20T03:20:15;101401.72;;;13.80;100.00
44988;BME280;35735;52.226;21.254;2023-05-20T03:25:15;101408.03;;;13.81;100.00
44988;BME280;35735;52.226;21.254;2023-05-20T03:30:16;101410.75;;;13.85;100.00
44988;BME280;35735;52.226;21.254;2023-05-20T03:35:17;101405.34;;;13.85;100.00
44988;BME280;35735;52.226;21.254;2023-05-20T03:40:17;101416.16;;;13.76;100.00
44988;BME280;35735;52.226;21.254;2023-05-20T03:45:18;101411.62;;;13.80;100.00
44988;BME280;35735;52.226;21.254;2023-05-20T03:50:19;101410.72;;;13.76;100.00
44988;BME280;35735;52.226;21.254;2023-05-20T03:55:19;101405.28;;;13.73;100.00
44988;BME280;35735;52.226;21.254;2023-05-20T04:00:20;101406.19;;;13.69;100.00
44988;BME280;35735;52.226;21.254;2023-05-20T04:05:22;101417.97;;;13.74;100.00
44988;BME280;35735;52.226;21.254;2023-05-20T04:10:23;101408.91;;;13.69;100.00
44988;BME280;35735;52.226;21.254;2023-05-20T04:15:23;101411.62;;;13.72;100.00
44988;BME280;35735;52.226;21.254;2023-05-20T04:20:24;101408.00;;;13.76;100.00
44988;BME280;35735;52.226;21.254;2023-05-20T04:25:24;101403.53;;;13.78;100.00
44988;BME280;35735;52.226;21.254;2023-05-20T04:30:25;101405.34;;;13.85;100.00
44988;BME280;35735;52.226;21.254;2023-05-20T04:35:25;101407.13;;;13.89;100.00
44988;BME280;35735;52.226;21.254;2023-05-20T04:40:26;101412.56;;;13.89;100.00
44988;BME280;35735;52.226;21.254;2023-05-20T04:45:27;101408.06;;;13.92;100.00
44988;BME280;35735;52.226;21.254;2023-05-20T04:50:27;101407.13;;;13.86;100.00
44988;BME280;35735;52.226;21.254;2023-05-20T04:55:28;101397.19;;;13.96;100.00
44988;BME280;35735;52.226;21.254;2023-05-20T05:00:28;101399.91;;;14.01;100.00
44988;BME280;35735;52.226;21.254;2023-05-20T05:05:29;101399.03;;;14.03;100.00
44988;BME280;35735;52.226;21.254;2023-05-20T05:10:29;101410.81;;;14.10;100.00
44988;BME280;35735;52.226;21.254;2023-05-20T05:15:30;101417.13;;;14.20;100.00
44988;BME280;35735;52.226;21.254;2023-05-20T05:20:30;101418.97;;;14.32;100.00
44988;BME280;35735;52.226;21.254;2023-05-20T05:25:31;101411.72;;;14.43;100.00
44988;BME280;35735;52.226;21.254;2023-05-20T05:30:32;101407.19;;;14.48;100.00
44988;BME280;35735;52.226;21.254;2023-05-20T05:35:32;101415.38;;;14.62;100.00
44988;BME280;35735;52.226;21.254;2023-05-20T05:40:33;101403.56;;;14.80;100.00
44988;BME280;35735;52.226;21.254;2023-05-20T05:45:34;101406.22;;;15.05;100.00
44988;BME280;35735;52.226;21.254;2023-05-20T05:50:35;101411.59;;;15.25;100.00
44988;BME280;35735;52.226;21.254;2023-05-20T05:55:35;101419.69;;;15.45;100.00
44988;BME280;35735;52.226;21.254;2023-05-20T06:00:36;101412.31;;;15.67;100.00
44988;BME280;35735;52.226;21.254;2023-05-20T06:05:36;101423.06;;;16.02;100.00
44988;BME280;35735;52.226;21.254;2023-05-20T06:10:37;101411.06;;;16.26;100.00
44988;BME280;35735;52.226;21.254;2023-05-20T06:15:39;101414.44;;;16.56;100.00
44988;BME280;35735;52.226;21.254;2023-05-20T06:20:39;101420.59;;;16.80;100.00
44988;BME280;35735;52.226;21.254;2023-05-20T06:25:40;101416.81;;;16.98;100.00
44988;BME280;35735;52.226;21.254;2023-05-20T06:30:40;101412.66;;;17.40;100.00
44988;BME280;35735;52.226;21.254;2023-05-20T06:35:41;101410.41;;;17.75;100.00
44988;BME280;35735;52.226;21.254;2023-05-20T06:40:42;101412.75;;;18.04;100.00
44988;BME280;35735;52.226;21.254;2023-05-20T06:45:42;101404.81;;;18.43;100.00
44988;BME280;35735;52.226;21.254;2023-05-20T06:50:43;101402.34;;;18.79;100.00
44988;BME280;35735;52.226;21.254;2023-05-20T06:55:44;101407.88;;;19.26;100.00
44988;BME280;35735;52.226;21.254;2023-05-20T07:00:45;101400.69;;;19.64;100.00
44988;BME280;35735;52.226;21.254;2023-05-20T07:05:46;101394.97;;;20.15;100.00
44988;BME280;35735;52.226;21.254;2023-05-20T07:10:47;101391.66;;;20.39;100.00
44988;BME280;35735;52.226;21.254;2023-05-20T07:15:47;101389.97;;;20.69;99.51
44988;BME280;35735;52.226;21.254;2023-05-20T07:20:48;101392.75;;;21.02;97.87
44988;BME280;35735;52.226;21.254;2023-05-20T07:25:48;101384.25;;;21.11;97.13
44988;BME280;35735;52.226;21.254;2023-05-20T07:30:49;101391.59;;;21.42;96.64
44988;BME280;35735;52.226;21.254;2023-05-20T07:35:49;101383.34;;;21.73;96.54
44988;BME280;35735;52.226;21.254;2023-05-20T07:40:50;101375.34;;;21.95;95.29
44988;BME280;35735;52.226;21.254;2023-05-20T07:45:51;101386.72;;;22.11;94.42
44988;BME280;35735;52.226;21.254;2023-05-20T07:50:51;101373.72;;;22.45;93.37
44988;BME280;35735;52.226;21.254;2023-05-20T07:55:52;101369.28;;;22.67;92.05
44988;BME280;35735;52.226;21.254;2023-05-20T08:00:52;101372.31;;;22.85;91.56
44988;BME280;35735;52.226;21.254;2023-05-20T08:05:53;101363.53;;;22.73;89.82
44988;BME280;35735;52.226;21.254;2023-05-20T08:10:53;101377.62;;;22.64;90.93
44988;BME280;35735;52.226;21.254;2023-05-20T08:15:54;101371.94;;;22.96;90.55
44988;BME280;35735;52.226;21.254;2023-05-20T08:20:55;101375.59;;;23.21;88.50
44988;BME280;35735;52.226;21.254;2023-05-20T08:25:55;101379.22;;;23.22;87.28
44988;BME280;35735;52.226;21.254;2023-05-20T08:30:56;101378.06;;;23.29;86.31
44988;BME280;35735;52.226;21.254;2023-05-20T08:35:56;101378.41;;;23.43;87.96
44988;BME280;35735;52.226;21.254;2023-05-20T08:40:57;101369.25;;;23.90;87.01
44988;BME280;35735;52.226;21.254;2023-05-20T08:45:57;101366.09;;;23.77;85.67
44988;BME280;35735;52.226;21.254;2023-05-20T08:50:58;101373.38;;;24.02;86.62
44988;BME280;35735;52.226;21.254;2023-05-20T08:56:02;101368.06;;;24.19;86.66
44988;BME280;35735;52.226;21.254;2023-05-20T09:01:02;101378.06;;;24.44;86.20
44988;BME280;35735;52.226;21.254;2023-05-20T09:06:05;101368.22;;;24.59;84.33
44988;BME280;35735;52.226;21.254;2023-05-20T09:11:08;101365.91;;;24.48;83.46
44988;BME280;35735;52.226;21.254;2023-05-20T09:16:09;101360.06;;;24.57;81.86
44988;BME280;35735;52.226;21.254;2023-05-20T09:21:10;101361.31;;;24.27;81.39
44988;BME280;35735;52.226;21.254;2023-05-20T09:26:10;101358.69;;;24.23;82.30
44988;BME280;35735;52.226;21.254;2023-05-20T09:31:13;101358.34;;;24.53;83.67
44988;BME280;35735;52.226;21.254;2023-05-20T09:36:14;101358.38;;;24.74;82.01
44988;BME280;35735;52.226;21.254;2023-05-20T09:41:15;101356.44;;;24.55;82.30
44988;BME280;35735;52.226;21.254;2023-05-20T09:46:16;101352.31;;;24.66;81.10
44988;BME280;35735;52.226;21.254;2023-05-20T09:51:17;101354.31;;;24.62;81.40
44988;BME280;35735;52.226;21.254;2023-05-20T09:56:19;101365.97;;;24.69;80.35
44988;BME280;35735;52.226;21.254;2023-05-20T10:01:20;101343.31;;;24.60;81.51
44988;BME280;35735;52.226;21.254;2023-05-20T10:06:28;101350.06;;;24.53;79.15
44988;BME280;35735;52.226;21.254;2023-05-20T10:17:30;101346.50;;;24.07;81.48
44988;BME280;35735;52.226;21.254;2023-05-20T10:22:41;101343.56;;;23.90;81.10
44988;BME280;35735;52.226;21.254;2023-05-20T10:27:45;101335.34;;;23.88;81.83
44988;BME280;35735;52.226;21.254;2023-05-20T10:32:54;101329.66;;;23.93;81.94
44988;BME280;35735;52.226;21.254;2023-05-20T10:38:09;101325.22;;;23.89;82.31
44988;BME280;35735;52.226;21.254;2023-05-20T10:43:12;101334.63;;;23.83;80.99
44988;BME280;35735;52.226;21.254;2023-05-20T10:48:41;101327.75;;;23.71;81.31
44988;BME280;35735;52.226;21.254;2023-05-20T10:53:45;101311.25;;;23.70;82.09
44988;BME280;35735;52.226;21.254;2023-05-20T10:58:46;101312.81;;;23.99;83.01
44988;BME280;35735;52.226;21.254;2023-05-20T11:03:47;101304.50;;;24.22;81.92
44988;BME280;35735;52.226;21.254;2023-05-20T11:08:49;101300.06;;;24.18;81.17
44988;BME280;35735;52.226;21.254;2023-05-20T11:13:50;101302.56;;;24.25;80.75
44988;BME280;35735;52.226;21.254;2023-05-20T11:18:51;101294.72;;;24.36;81.21
44988;BME280;35735;52.226;21.254;2023-05-20T11:23:51;101286.22;;;24.63;81.02
44988;BME280;35735;52.226;21.254;2023-05-20T11:28:52;101285.38;;;24.81;79.84
44988;BME280;35735;52.226;21.254;2023-05-20T11:33:52;101278.31;;;24.74;79.56
44988;BME280;35735;52.226;21.254;2023-05-20T11:38:53;101261.22;;;24.86;79.79
44988;BME280;35735;52.226;21.254;2023-05-20T11:43:57;101264.37;;;24.98;79.22
44988;BME280;35735;52.226;21.254;2023-05-20T11:48:59;101281.34;;;24.88;78.31
44988;BME280;35735;52.226;21.254;2023-05-20T11:54:01;101273.84;;;24.71;78.13
44988;BME280;35735;52.226;21.254;2023-05-20T11:59:04;101278.06;;;24.80;79.63
44988;BME280;35735;52.226;21.254;2023-05-20T12:04:06;101267.66;;;25.06;79.10
44988;BME280;35735;52.226;21.254;2023-05-20T12:09:07;101264.37;;;25.17;78.36
44988;BME280;35735;52.226;21.254;2023-05-20T12:14:08;101279.47;;;25.09;78.83
44988;BME280;35735;52.226;21.254;2023-05-20T12:19:08;101269.97;;;24.75;78.81
44988;BME280;35735;52.226;21.254;2023-05-20T12:24:09;101263.75;;;24.50;79.68
44988;BME280;35735;52.226;21.254;2023-05-20T12:29:09;101270.72;;;24.38;80.00
44988;BME280;35735;52.226;21.254;2023-05-20T12:34:10;101272.03;;;24.29;80.16
44988;BME280;35735;52.226;21.254;2023-05-20T12:39:10;101254.59;;;24.49;80.77
44988;BME280;35735;52.226;21.254;2023-05-20T12:44:11;101262.53;;;24.77;79.98
44988;BME280;35735;52.226;21.254;2023-05-20T12:49:11;101259.88;;;24.95;78.46
44988;BME280;35735;52.226;21.254;2023-05-20T12:54:12;101257.47;;;24.87;78.80
44988;BME280;35735;52.226;21.254;2023-05-20T12:59:13;101242.69;;;24.88;78.84
44988;BME280;35735;52.226;21.254;2023-05-20T13:04:14;101233.28;;;24.92;79.52
44988;BME280;35735;52.226;21.254;2023-05-20T13:09:14;101232.59;;;25.08;79.97
44988;BME280;35735;52.226;21.254;2023-05-20T13:14:15;101229.87;;;25.25;79.00
44988;BME280;35735;52.226;21.254;2023-05-20T13:19:15;101217.66;;;25.12;79.08
44988;BME280;35735;52.226;21.254;2023-05-20T13:24:17;101226.06;;;25.09;79.00
44988;BME280;35735;52.226;21.254;2023-05-20T13:29:17;101222.78;;;25.01;78.08
44988;BME280;35735;52.226;21.254;2023-05-20T13:34:18;101219.59;;;24.91;77.80
44988;BME280;35735;52.226;21.254;2023-05-20T13:39:19;101224.63;;;24.81;78.70
44988;BME280;35735;52.226;21.254;2023-05-20T13:44:19;101222.44;;;24.69;78.92
44988;BME280;35735;52.226;21.254;2023-05-20T13:49:20;101218.19;;;24.62;78.97
44988;BME280;35735;52.226;21.254;2023-05-20T13:54:21;101205.88;;;24.48;79.52
44988;BME280;35735;52.226;21.254;2023-05-20T13:59:21;101200.16;;;24.53;79.71
44988;BME280;35735;52.226;21.254;2023-05-20T14:04:24;101202.56;;;24.60;79.27
44988;BME280;35735;52.226;21.254;2023-05-20T14:09:24;101200.16;;;24.53;78.18
44988;BME280;35735;52.226;21.254;2023-05-20T14:14:25;101186.97;;;24.39;79.58
44988;BME280;35735;52.226;21.254;2023-05-20T14:19:25;101179.25;;;24.27;79.67
44988;BME280;35735;52.226;21.254;2023-05-20T14:24:26;101195.81;;;24.27;78.91
44988;BME280;35735;52.226;21.254;2023-05-20T14:29:26;101198.44;;;24.09;78.64
44988;BME280;35735;52.226;21.254;2023-05-20T14:34:27;101189.47;;;24.04;79.67
44988;BME280;35735;52.226;21.254;2023-05-20T14:39:28;101185.59;;;24.08;79.79
44988;BME280;35735;52.226;21.254;2023-05-20T14:44:29;101186.22;;;24.15;79.67
44988;BME280;35735;52.226;21.254;2023-05-20T14:49:30;101187.34;;;24.11;79.01
44988;BME280;35735;52.226;21.254;2023-05-20T14:54:30;101181.34;;;24.01;79.17
44988;BME280;35735;52.226;21.254;2023-05-20T14:59:31;101179.03;;;23.90;80.21
44988;BME280;35735;52.226;21.254;2023-05-20T15:04:32;101181.97;;;23.85;80.10
44988;BME280;35735;52.226;21.254;2023-05-20T15:09:33;101168.34;;;23.82;80.32
44988;BME280;35735;52.226;21.254;2023-05-20T15:14:33;101166.28;;;23.88;80.53
44988;BME280;35735;52.226;21.254;2023-05-20T15:19:34;101166.28;;;23.88;79.31
44988;BME280;35735;52.226;21.254;2023-05-20T15:24:34;101163.72;;;23.83;79.08
44988;BME280;35735;52.226;21.254;2023-05-20T15:29:35;101158.31;;;23.80;79.24
44988;BME280;35735;52.226;21.254;2023-05-20T15:34:36;101151.91;;;23.79;79.10
44988;BME280;35735;52.226;21.254;2023-05-20T15:39:36;101144.72;;;23.75;78.83
44988;BME280;35735;52.226;21.254;2023-05-20T15:44:37;101150.53;;;23.69;78.81
44988;BME280;35735;52.226;21.254;2023-05-20T15:49:37;101148.97;;;23.62;79.30
44988;BME280;35735;52.226;21.254;2023-05-20T15:54:38;101145.66;;;23.54;78.94
44988;BME280;35735;52.226;21.254;2023-05-20T15:59:39;101152.44;;;23.45;78.76
44988;BME280;35735;52.226;21.254;2023-05-20T16:04:39;101148.13;;;23.39;78.89
44988;BME280;35735;52.226;21.254;2023-05-20T16:09:40;101151.94;;;23.35;79.71
44988;BME280;35735;52.226;21.254;2023-05-20T16:14:40;101152.84;;;23.36;79.51
44988;BME280;35735;52.226;21.254;2023-05-20T16:19:41;101148.47;;;23.30;79.31
44988;BME280;35735;52.226;21.254;2023-05-20T16:24:42;101142.25;;;23.25;79.31
44988;BME280;35735;52.226;21.254;2023-05-20T16:29:43;101138.87;;;23.18;79.76
44988;BME280;35735;52.226;21.254;2023-05-20T16:34:44;101149.31;;;23.10;80.20
44988;BME280;35735;52.226;21.254;2023-05-20T16:39:44;101149.72;;;22.99;79.87
44988;BME280;35735;52.226;21.254;2023-05-20T16:44:45;101148.41;;;22.86;79.71
44988;BME280;35735;52.226;21.254;2023-05-20T16:49:49;101150.69;;;22.74;79.70
44988;BME280;35735;52.226;21.254;2023-05-20T16:54:50;101151.91;;;22.67;79.90
44988;BME280;35735;52.226;21.254;2023-05-20T16:59:51;101151.28;;;22.59;79.66
44988;BME280;35735;52.226;21.254;2023-05-20T17:04:52;101170.06;;;22.48;79.91
44988;BME280;35735;52.226;21.254;2023-05-20T17:09:52;101153.78;;;22.42;80.13
44988;BME280;35735;52.226;21.254;2023-05-20T17:14:53;101153.97;;;22.37;80.17
44988;BME280;35735;52.226;21.254;2023-05-20T17:19:53;101160.56;;;22.31;79.92
44988;BME280;35735;52.226;21.254;2023-05-20T17:24:54;101168.13;;;22.25;79.71
44988;BME280;35735;52.226;21.254;2023-05-20T17:29:54;101156.56;;;22.15;79.54
44988;BME280;35735;52.226;21.254;2023-05-20T17:34:55;101160.50;;;22.08;79.40
44988;BME280;35735;52.226;21.254;2023-05-20T17:39:56;101162.63;;;21.99;79.45
44988;BME280;35735;52.226;21.254;2023-05-20T17:44:56;101172.97;;;21.91;79.30
44988;BME280;35735;52.226;21.254;2023-05-20T17:49:57;101164.94;;;21.85;79.59
44988;BME280;35735;52.226;21.254;2023-05-20T17:54:57;101172.59;;;21.77;79.80
44988;BME280;35735;52.226;21.254;2023-05-20T17:59:58;101174.56;;;21.72;79.71
44988;BME280;35735;52.226;21.254;2023-05-20T18:04:58;101169.59;;;21.56;79.75
44988;BME280;35735;52.226;21.254;2023-05-20T18:09:59;101172.78;;;21.42;79.93
44988;BME280;35735;52.226;21.254;2023-05-20T18:15:00;101164.78;;;21.35;80.58
44988;BME280;35735;52.226;21.254;2023-05-20T18:20:00;101156.31;;;21.42;80.83
44988;BME280;35735;52.226;21.254;2023-05-20T18:25:01;101170.19;;;21.38;80.68
44988;BME280;35735;52.226;21.254;2023-05-20T18:30:02;101176.66;;;21.37;80.99
44988;BME280;35735;52.226;21.254;2023-05-20T18:35:03;101174.97;;;21.31;81.35
44988;BME280;35735;52.226;21.254;2023-05-20T18:40:04;101179.87;;;21.21;82.20
44988;BME280;35735;52.226;21.254;2023-05-20T18:45:06;101179.34;;;21.10;82.50
44988;BME280;35735;52.226;21.254;2023-05-20T18:50:07;101184.25;;;20.99;83.46
44988;BME280;35735;52.226;21.254;2023-05-20T18:55:08;101184.44;;;20.92;84.30
44988;BME280;35735;52.226;21.254;2023-05-20T19:00:09;101181.25;;;20.78;84.47
44988;BME280;35735;52.226;21.254;2023-05-20T19:05:11;101177.13;;;20.62;85.02
44988;BME280;35735;52.226;21.254;2023-05-20T19:10:12;101181.34;;;20.42;85.65
44988;BME280;35735;52.226;21.254;2023-05-20T19:15:12;101175.34;;;20.28;86.59
44988;BME280;35735;52.226;21.254;2023-05-20T19:20:13;101181.12;;;20.17;86.77
44988;BME280;35735;52.226;21.254;2023-05-20T19:25:13;101180.88;;;19.93;87.51
44988;BME280;35735;52.226;21.254;2023-05-20T19:30:14;101175.66;;;19.83;88.01
44988;BME280;35735;52.226;21.254;2023-05-20T19:35:14;101181.94;;;19.50;89.21
44988;BME280;35735;52.226;21.254;2023-05-20T19:40:15;101178.06;;;19.23;90.34
44988;BME280;35735;52.226;21.254;2023-05-20T19:45:16;101169.59;;;18.95;91.04
44988;BME280;35735;52.226;21.254;2023-05-20T19:50:16;101167.16;;;18.79;91.82
44988;BME280;35735;52.226;21.254;2023-05-20T19:55:17;101166.66;;;18.60;92.50
44988;BME280;35735;52.226;21.254;2023-05-20T20:00:20;101168.72;;;18.49;92.64
44988;BME280;35735;52.226;21.254;2023-05-20T20:05:21;101167.16;;;18.36;93.02
44988;BME280;35735;52.226;21.254;2023-05-20T20:10:22;101175.72;;;18.19;93.29
44988;BME280;35735;52.226;21.254;2023-05-20T20:15:22;101182.25;;;18.10;93.72
44988;BME280;35735;52.226;21.254;2023-05-20T20:20:23;101178.69;;;18.06;93.98
44988;BME280;35735;52.226;21.254;2023-05-20T20:25:24;101179.81;;;17.94;94.43
44988;BME280;35735;52.226;21.254;2023-05-20T20:30:25;101181.84;;;17.82;94.98
44988;BME280;35735;52.226;21.254;2023-05-20T20:35:25;101185.63;;;17.73;95.28
44988;BME280;35735;52.226;21.254;2023-05-20T20:40:26;101189.44;;;17.63;95.43
44988;BME280;35735;52.226;21.254;2023-05-20T20:45:26;101187.75;;;17.54;95.75
44988;BME280;35735;52.226;21.254;2023-05-20T20:50:27;101189.81;;;17.41;96.10
44988;BME280;35735;52.226;21.254;2023-05-20T20:55:27;101186.16;;;17.39;96.29
44988;BME280;35735;52.226;21.254;2023-05-20T21:00:28;101173.53;;;17.33;96.45
44988;BME280;35735;52.226;21.254;2023-05-20T21:05:29;101172.69;;;17.31;96.54
44988;BME280;35735;52.226;21.254;2023-05-20T21:10:30;101172.69;;;17.30;96.59
44988;BME280;35735;52.226;21.254;2023-05-20T21:15:30;101171.00;;;17.22;96.40
44988;BME280;35735;52.226;21.254;2023-05-20T21:20:31;101160.22;;;17.13;96.40
44988;BME280;35735;52.226;21.254;2023-05-20T21:25:31;101162.34;;;16.93;96.43
44988;BME280;35735;52.226;21.254;2023-05-20T21:30:32;101162.44;;;16.87;96.66
44988;BME280;35735;52.226;21.254;2023-05-20T21:35:32;101162.44;;;16.85;96.76
44988;BME280;35735;52.226;21.254;2023-05-20T21:40:33;101158.06;;;16.70;96.77
44988;BME280;35735;52.226;21.254;2023-05-20T21:45:33;101155.47;;;16.62;96.83
44988;BME280;35735;52.226;21.254;2023-05-20T21:50:34;101156.41;;;16.60;96.87
44988;BME280;35735;52.226;21.254;2023-05-20T21:55:34;101156.44;;;16.57;96.84
44988;BME280;35735;52.226;21.254;2023-05-20T22:00:35;101159.19;;;16.54;97.05
44988;BME280;35735;52.226;21.254;2023-05-20T22:05:36;101163.91;;;16.42;97.02
44988;BME280;35735;52.226;21.254;2023-05-20T22:10:36;101167.53;;;16.41;97.29
44988;BME280;35735;52.226;21.254;2023-05-20T22:15:37;101168.56;;;16.31;97.67
44988;BME280;35735;52.226;21.254;2023-05-20T22:20:37;101161.44;;;16.19;98.18
44988;BME280;35735;52.226;21.254;2023-05-20T22:25:38;101173.38;;;16.09;98.64
44988;BME280;35735;52.226;21.254;2023-05-20T22:30:38;101163.56;;;15.91;99.14
44988;BME280;35735;52.226;21.254;2023-05-20T22:35:39;101176.47;;;15.67;99.66
44988;BME280;35735;52.226;21.254;2023-05-20T22:40:39;101161.19;;;15.51;100.00
44988;BME280;35735;52.226;21.254;2023-05-20T22:45:40;101161.38;;;15.26;100.00
44988;BME280;35735;52.226;21.254;2023-05-20T22:50:41;101150.59;;;15.17;100.00
44988;BME280;35735;52.226;21.254;2023-05-20T22:55:41;101156.16;;;14.97;100.00
44988;BME280;35735;52.226;21.254;2023-05-20T23:00:42;101152.66;;;14.73;100.00
44988;BME280;35735;52.226;21.254;2023-05-20T23:05:43;101149.06;;;14.67;100.00
44988;BME280;35735;52.226;21.254;2023-05-20T23:10:43;101150.94;;;14.51;100.00
44988;BME280;35735;52.226;21.254;2023-05-20T23:15:44;101150.09;;;14.35;100.00
44988;BME280;35735;52.226;21.254;2023-05-20T23:20:44;101147.44;;;14.15;100.00
44988;BME280;35735;52.226;21.254;2023-05-20T23:25:45;101152.91;;;14.07;100.00
44988;BME280;35735;52.226;21.254;2023-05-20T23:30:46;101152.03;;;14.02;100.00
44988;BME280;35735;52.226;21.254;2023-05-20T23:35:46;101152.91;;;13.93;100.00
44988;BME280;35735;52.226;21.254;2023-05-20T23:40:47;101163.81;;;13.85;100.00
44988;BME280;35735;52.226;21.254;2023-05-20T23:45:48;101148.47;;;13.75;100.00
44988;BME280;35735;52.226;21.254;2023-05-20T23:50:49;101152.06;;;13.68;100.00
44988;BME280;35735;52.226;21.254;2023-05-20T23:55:49;101152.97;;;13.59;100.00
